EDT,Max TemperatureF,Mean TemperatureF,Min TemperatureF,Max Dew PointF,MeanDew PointF,Min DewpointF,Max Humidity, Mean Humidity, Min Humidity, Max Sea Level PressureIn, Mean Sea Level PressureIn, Min Sea Level PressureIn, Max VisibilityMiles, Mean VisibilityMiles, Min VisibilityMiles, Max Wind SpeedMPH, Mean Wind SpeedMPH, Max Gust SpeedMPH,PrecipitationIn, CloudCover, Events, WindDirDegrees
2012-10-1,78,71,64,73,68,63,100,95,78,29.89,29.85,29.81,10,6,1,10,5,,0.42,6,Rain,61
2012-10-2,84,78,73,77,74,72,100,91,70,30.00,29.88,29.80,10,9,2,13,4,18,0.33,3,Rain,163
2012-10-3,86,80,73,77,72,63,100,85,48,30.19,30.09,30.00,10,10,7,9,4,,0.00,1,Rain,188
2012-10-4,78,73,68,72,69,66,100,88,69,30.24,30.19,30.16,10,10,5,5,0,,0.00,3,,293
2012-10-5,80,71,62,68,63,54,100,82,39,30.19,30.11,30.04,10,9,1,7,0,,0.00,0,,34
2012-10-6,84,72,59,68,63,59,100,79,45,30.03,29.96,29.89,10,9,2,7,1,,0.00,1,,221
2012-10-7,80,70,59,70,65,54,100,83,58,30.10,29.98,29.93,10,9,3,9,2,,0.00,3,,2
2012-10-8,59,54,50,55,52,50,100,93,82,30.17,30.10,30.06,10,8,2,12,6,21,0.56,7,Rain,20
2012-10-9,55,53,51,54,52,50,100,96,88,30.13,30.09,30.06,10,7,2,7,3,,0.00,8,Rain,351
2012-10-10,69,60,50,57,53,50,100,85,56,30.12,30.07,29.99,10,7,1,8,1,,0.00,4,,257
2012-10-11,68,60,50,54,48,41,100,74,37,30.29,30.22,30.12,10,9,4,13,2,16,0.00,0,,37
2012-10-12,73,58,44,55,50,45,100,77,41,30.29,30.21,30.15,10,9,5,6,1,,0.00,0,,331
2012-10-13,71,60,50,54,49,45,94,71,43,30.42,30.36,30.30,10,10,10,12,5,17,0.00,0,,43
2012-10-14,80,65,50,61,54,48,100,75,34,30.32,30.20,30.06,10,10,10,8,1,,0.00,0,,136
2012-10-15,80,68,57,68,62,55,100,86,57,30.05,29.88,29.75,10,9,2,13,2,16,0.20,1,Rain,213
2012-10-16,69,60,50,55,47,41,100,69,35,29.96,29.90,29.84,10,10,10,13,1,20,0.00,0,,7
2012-10-17,68,57,46,55,50,46,100,83,46,30.02,29.96,29.93,10,9,3,6,0,,0.00,0,,102
2012-10-18,78,64,50,68,60,50,100,89,57,29.94,29.87,29.81,10,8,5,13,1,18,0.00,1,,137
2012-10-19,78,66,55,68,55,37,100,68,24,29.82,29.78,29.74,10,9,2,9,4,,0.03,1,Rain,223
2012-10-20,73,60,48,52,47,39,94,67,31,29.93,29.84,29.79,10,10,10,10,2,16,0.00,0,,242
2012-10-21,69,58,46,52,44,37,100,66,33,30.15,30.07,29.93,10,10,10,9,2,,0.00,0,,5
2012-10-22,71,56,42,54,46,37,100,73,29,30.24,30.18,30.14,10,10,7,5,0,,0.00,0,,40
2012-10-23,77,60,44,55,49,43,100,76,32,30.22,30.17,30.12,10,10,7,5,0,,0.00,0,,185
2012-10-24,78,64,50,64,56,50,100,82,39,30.20,30.15,30.10,10,8,0,4,0,,0.00,2,Fog,292
2012-10-25,80,66,53,66,59,54,100,84,45,30.14,30.10,30.06,10,7,0,12,2,17,0.00,1,Fog,64
2012-10-26,73,66,59,64,61,55,100,86,69,30.06,29.96,29.83,10,10,5,10,3,20,0.00,2,,19
2012-10-27,68,66,64,63,61,57,94,86,77,29.82,29.65,29.55,10,10,7,12,8,24,0.07,4,Rain,14
2012-10-28,64,62,59,57,52,50,77,70,59,29.56,29.54,29.51,10,10,10,13,8,26,0.00,6,,351
2012-10-29,59,54,48,50,39,32,82,61,44,29.55,29.51,29.44,10,10,10,12,6,26,0.00,4,,279
2012-10-30,55,50,46,41,34,32,81,55,41,29.68,29.53,29.43,10,10,10,13,7,25,0.00,0,Rain,241
2012-10-31,60,50,41,43,36,32,93,63,36,29.80,29.73,29.68,10,10,10,13,4,18,0.00,0,,236